sensor_id;sensor_type;location;lat;lon;timestamp;P1;durP1;ratioP1;P2;durP2;ratioP2
24279;SDS011;12395;42.808;23.408;2022-09-25T00:00:53;6.85;;;4.60;;
24279;SDS011;12395;42.808;23.408;2022-09-25T00:03:20;7.00;;;4.68;;
24279;SDS011;12395;42.808;23.408;2022-09-25T00:05:48;7.82;;;4.90;;
24279;SDS011;12395;42.808;23.408;2022-09-25T00:08:14;9.23;;;5.00;;
24279;SDS011;12395;42.808;23.408;2022-09-25T00:10:48;7.18;;;4.70;;
24279;SDS011;12395;42.808;23.408;2022-09-25T00:13:16;10.07;;;4.78;;
24279;SDS011;12395;42.808;23.408;2022-09-25T00:18:11;7.68;;;4.80;;
24279;SDS011;12395;42.808;23.408;2022-09-25T00:20:37;8.82;;;4.97;;
24279;SDS011;12395;42.808;23.408;2022-09-25T00:23:02;10.20;;;4.90;;
24279;SDS011;12395;42.808;23.408;2022-09-25T00:25:28;7.60;;;4.85;;
24279;SDS011;12395;42.808;23.408;2022-09-25T00:27:53;7.63;;;5.18;;
24279;SDS011;12395;42.808;23.408;2022-09-25T00:30:19;7.63;;;4.82;;
24279;SDS011;12395;42.808;23.408;2022-09-25T00:32:44;8.30;;;4.90;;
24279;SDS011;12395;42.808;23.408;2022-09-25T00:35:10;7.43;;;4.78;;
24279;SDS011;12395;42.808;23.408;2022-09-25T00:37:35;7.50;;;4.78;;
24279;SDS011;12395;42.808;23.408;2022-09-25T00:40:02;8.45;;;4.90;;
24279;SDS011;12395;42.808;23.408;2022-09-25T00:44:58;7.13;;;5.03;;
24279;SDS011;12395;42.808;23.408;2022-09-25T00:50:24;7.65;;;5.03;;
24279;SDS011;12395;42.808;23.408;2022-09-25T00:52:58;9.00;;;5.10;;
24279;SDS011;12395;42.808;23.408;2022-09-25T00:55:46;7.85;;;4.90;;
24279;SDS011;12395;42.808;23.408;2022-09-25T00:58:12;8.20;;;5.00;;
24279;SDS011;12395;42.808;23.408;2022-09-25T01:00:40;7.47;;;5.00;;
24279;SDS011;12395;42.808;23.408;2022-09-25T01:03:06;8.82;;;5.40;;
24279;SDS011;12395;42.808;23.408;2022-09-25T01:05:34;7.40;;;4.90;;
24279;SDS011;12395;42.808;23.408;2022-09-25T01:08:02;7.93;;;5.10;;
24279;SDS011;12395;42.808;23.408;2022-09-25T01:10:30;7.53;;;5.10;;
24279;SDS011;12395;42.808;23.408;2022-09-25T01:12:56;7.70;;;4.80;;
24279;SDS011;12395;42.808;23.408;2022-09-25T01:15:30;7.47;;;4.80;;
24279;SDS011;12395;42.808;23.408;2022-09-25T01:18:13;6.65;;;4.78;;
24279;SDS011;12395;42.808;23.408;2022-09-25T01:40:33;7.43;;;5.13;;
24279;SDS011;12395;42.808;23.408;2022-09-25T01:45:47;9.05;;;5.88;;
24279;SDS011;12395;42.808;23.408;2022-09-25T01:48:22;8.88;;;5.80;;
24279;SDS011;12395;42.808;23.408;2022-09-25T01:50:56;8.05;;;5.65;;
24279;SDS011;12395;42.808;23.408;2022-09-25T01:53:38;9.15;;;5.75;;
24279;SDS011;12395;42.808;23.408;2022-09-25T01:58:59;8.50;;;6.10;;
24279;SDS011;12395;42.808;23.408;2022-09-25T02:01:31;8.95;;;5.75;;
24279;SDS011;12395;42.808;23.408;2022-09-25T02:04:19;7.82;;;5.72;;
24279;SDS011;12395;42.808;23.408;2022-09-25T02:06:50;10.82;;;5.95;;
24279;SDS011;12395;42.808;23.408;2022-09-25T02:09:24;9.45;;;6.20;;
24279;SDS011;12395;42.808;23.408;2022-09-25T02:11:57;9.70;;;6.45;;
24279;SDS011;12395;42.808;23.408;2022-09-25T02:14:31;11.05;;;6.38;;
24279;SDS011;12395;42.808;23.408;2022-09-25T02:17:03;10.63;;;6.15;;
24279;SDS011;12395;42.808;23.408;2022-09-25T02:19:31;8.88;;;6.00;;
24279;SDS011;12395;42.808;23.408;2022-09-25T02:29:54;10.60;;;6.30;;
24279;SDS011;12395;42.808;23.408;2022-09-25T02:32:25;8.52;;;5.93;;
24279;SDS011;12395;42.808;23.408;2022-09-25T02:34:54;9.02;;;6.07;;
24279;SDS011;12395;42.808;23.408;2022-09-25T02:37:21;9.55;;;6.22;;
24279;SDS011;12395;42.808;23.408;2022-09-25T02:39:48;10.57;;;6.10;;
24279;SDS011;12395;42.808;23.408;2022-09-25T02:58:45;10.15;;;6.05;;
24279;SDS011;12395;42.808;23.408;2022-09-25T03:01:15;8.70;;;5.93;;
24279;SDS011;12395;42.808;23.408;2022-09-25T03:03:43;9.48;;;6.15;;
24279;SDS011;12395;42.808;23.408;2022-09-25T03:06:11;10.18;;;5.78;;
24279;SDS011;12395;42.808;23.408;2022-09-25T03:08:37;11.27;;;6.28;;
24279;SDS011;12395;42.808;23.408;2022-09-25T03:11:15;9.65;;;6.55;;
24279;SDS011;12395;42.808;23.408;2022-09-25T03:13:43;9.88;;;6.63;;
24279;SDS011;12395;42.808;23.408;2022-09-25T03:18:38;12.65;;;7.32;;
24279;SDS011;12395;42.808;23.408;2022-09-25T03:21:03;9.60;;;6.55;;
24279;SDS011;12395;42.808;23.408;2022-09-25T03:23:29;11.35;;;6.88;;
24279;SDS011;12395;42.808;23.408;2022-09-25T03:25:56;9.57;;;6.70;;
24279;SDS011;12395;42.808;23.408;2022-09-25T03:28:22;9.48;;;6.68;;
24279;SDS011;12395;42.808;23.408;2022-09-25T03:30:57;10.25;;;7.05;;
24279;SDS011;12395;42.808;23.408;2022-09-25T03:33:28;13.25;;;7.40;;
24279;SDS011;12395;42.808;23.408;2022-09-25T03:38:29;10.50;;;7.25;;
24279;SDS011;12395;42.808;23.408;2022-09-25T03:40:54;11.43;;;7.60;;
24279;SDS011;12395;42.808;23.408;2022-09-25T03:43:19;10.68;;;6.90;;
24279;SDS011;12395;42.808;23.408;2022-09-25T03:45:45;12.65;;;6.93;;
24279;SDS011;12395;42.808;23.408;2022-09-25T03:48:10;10.13;;;7.18;;
24279;SDS011;12395;42.808;23.408;2022-09-25T03:50:35;10.55;;;7.15;;
24279;SDS011;12395;42.808;23.408;2022-09-25T03:53:03;10.32;;;6.82;;
24279;SDS011;12395;42.808;23.408;2022-09-25T03:55:28;10.13;;;7.07;;
24279;SDS011;12395;42.808;23.408;2022-09-25T03:57:54;10.23;;;6.68;;
24279;SDS011;12395;42.808;23.408;2022-09-25T04:00:19;10.07;;;6.78;;
24279;SDS011;12395;42.808;23.408;2022-09-25T04:02:45;12.13;;;7.30;;
24279;SDS011;12395;42.808;23.408;2022-09-25T04:05:10;10.20;;;6.97;;
24279;SDS011;12395;42.808;23.408;2022-09-25T04:07:36;9.90;;;6.53;;
24279;SDS011;12395;42.808;23.408;2022-09-25T04:10:01;10.48;;;6.93;;
24279;SDS011;12395;42.808;23.408;2022-09-25T04:12:27;9.30;;;6.75;;
24279;SDS011;12395;42.808;23.408;2022-09-25T04:14:52;12.13;;;7.53;;
24279;SDS011;12395;42.808;23.408;2022-09-25T04:17:18;11.80;;;7.60;;
24279;SDS011;12395;42.808;23.408;2022-09-25T04:19:44;12.95;;;8.20;;
24279;SDS011;12395;42.808;23.408;2022-09-25T04:22:11;12.52;;;8.45;;
24279;SDS011;12395;42.808;23.408;2022-09-25T04:24:37;11.27;;;7.35;;
24279;SDS011;12395;42.808;23.408;2022-09-25T04:27:16;14.13;;;8.40;;
24279;SDS011;12395;42.808;23.408;2022-09-25T04:29:43;14.85;;;9.48;;
24279;SDS011;12395;42.808;23.408;2022-09-25T04:32:09;14.93;;;8.98;;
24279;SDS011;12395;42.808;23.408;2022-09-25T04:34:54;12.05;;;7.38;;
24279;SDS011;12395;42.808;23.408;2022-09-25T04:37:19;10.50;;;6.70;;
24279;SDS011;12395;42.808;23.408;2022-09-25T04:39:50;12.73;;;7.95;;
24279;SDS011;12395;42.808;23.408;2022-09-25T04:42:16;11.02;;;7.63;;
24279;SDS011;12395;42.808;23.408;2022-09-25T04:44:42;11.68;;;7.32;;
24279;SDS011;12395;42.808;23.408;2022-09-25T04:47:07;10.63;;;6.88;;
24279;SDS011;12395;42.808;23.408;2022-09-25T04:49:32;11.77;;;7.15;;
24279;SDS011;12395;42.808;23.408;2022-09-25T04:51:58;11.57;;;6.97;;
24279;SDS011;12395;42.808;23.408;2022-09-25T04:54:23;10.60;;;7.13;;
24279;SDS011;12395;42.808;23.408;2022-09-25T04:56:48;13.13;;;7.85;;
24279;SDS011;12395;42.808;23.408;2022-09-25T04:59:14;11.75;;;8.35;;
24279;SDS011;12395;42.808;23.408;2022-09-25T05:01:40;12.43;;;8.07;;
24279;SDS011;12395;42.808;23.408;2022-09-25T05:04:06;12.40;;;7.13;;
24279;SDS011;12395;42.808;23.408;2022-09-25T05:06:31;10.98;;;7.18;;
24279;SDS011;12395;42.808;23.408;2022-09-25T05:08:57;11.70;;;7.55;;
24279;SDS011;12395;42.808;23.408;2022-09-25T05:11:23;12.73;;;7.75;;
24279;SDS011;12395;42.808;23.408;2022-09-25T05:13:49;11.60;;;7.72;;
24279;SDS011;12395;42.808;23.408;2022-09-25T05:16:15;14.30;;;8.25;;
24279;SDS011;12395;42.808;23.408;2022-09-25T05:18:41;14.75;;;8.23;;
24279;SDS011;12395;42.808;23.408;2022-09-25T05:21:06;12.82;;;8.55;;
24279;SDS011;12395;42.808;23.408;2022-09-25T05:23:31;13.43;;;8.65;;
24279;SDS011;12395;42.808;23.408;2022-09-25T05:25:57;32.45;;;16.25;;
24279;SDS011;12395;42.808;23.408;2022-09-25T05:28:26;29.63;;;15.27;;
24279;SDS011;12395;42.808;23.408;2022-09-25T05:30:57;23.38;;;12.60;;
24279;SDS011;12395;42.808;23.408;2022-09-25T05:33:24;17.65;;;10.00;;
24279;SDS011;12395;42.808;23.408;2022-09-25T05:35:49;20.77;;;10.60;;
24279;SDS011;12395;42.808;23.408;2022-09-25T05:38:15;19.95;;;11.63;;
24279;SDS011;12395;42.808;23.408;2022-09-25T05:40:40;17.05;;;10.32;;
24279;SDS011;12395;42.808;23.408;2022-09-25T05:43:05;16.13;;;9.38;;
24279;SDS011;12395;42.808;23.408;2022-09-25T05:45:31;13.48;;;8.23;;
24279;SDS011;12395;42.808;23.408;2022-09-25T05:48:07;13.63;;;8.38;;
24279;SDS011;12395;42.808;23.408;2022-09-25T05:50:33;15.38;;;9.30;;
24279;SDS011;12395;42.808;23.408;2022-09-25T05:53:00;23.20;;;13.55;;
24279;SDS011;12395;42.808;23.408;2022-09-25T05:57:52;14.75;;;8.40;;
24279;SDS011;12395;42.808;23.408;2022-09-25T06:00:17;13.15;;;8.10;;
24279;SDS011;12395;42.808;23.408;2022-09-25T06:02:43;12.07;;;7.70;;
24279;SDS011;12395;42.808;23.408;2022-09-25T06:05:08;12.63;;;7.00;;
24279;SDS011;12395;42.808;23.408;2022-09-25T06:07:34;11.65;;;7.40;;
24279;SDS011;12395;42.808;23.408;2022-09-25T06:10:01;13.05;;;7.70;;
24279;SDS011;12395;42.808;23.408;2022-09-25T06:12:30;15.43;;;9.90;;
24279;SDS011;12395;42.808;23.408;2022-09-25T06:14:55;14.52;;;8.55;;
24279;SDS011;12395;42.808;23.408;2022-09-25T06:17:21;14.50;;;7.90;;
24279;SDS011;12395;42.808;23.408;2022-09-25T06:19:47;13.57;;;8.05;;
24279;SDS011;12395;42.808;23.408;2022-09-25T06:22:13;13.88;;;8.10;;
24279;SDS011;12395;42.808;23.408;2022-09-25T06:24:38;12.40;;;7.05;;
24279;SDS011;12395;42.808;23.408;2022-09-25T06:27:07;13.13;;;7.82;;
24279;SDS011;12395;42.808;23.408;2022-09-25T06:29:33;13.15;;;7.63;;
24279;SDS011;12395;42.808;23.408;2022-09-25T06:31:59;11.85;;;7.72;;
24279;SDS011;12395;42.808;23.408;2022-09-25T06:34:24;10.75;;;7.53;;
24279;SDS011;12395;42.808;23.408;2022-09-25T06:36:51;12.52;;;7.38;;
24279;SDS011;12395;42.808;23.408;2022-09-25T06:39:16;13.32;;;8.30;;
24279;SDS011;12395;42.808;23.408;2022-09-25T06:41:41;14.70;;;8.07;;
24279;SDS011;12395;42.808;23.408;2022-09-25T06:44:07;14.45;;;8.10;;
24279;SDS011;12395;42.808;23.408;2022-09-25T06:46:33;12.88;;;8.40;;
24279;SDS011;12395;42.808;23.408;2022-09-25T06:49:01;13.57;;;8.13;;
24279;SDS011;12395;42.808;23.408;2022-09-25T06:51:27;11.80;;;7.50;;
24279;SDS011;12395;42.808;23.408;2022-09-25T06:53:56;11.25;;;7.22;;
24279;SDS011;12395;42.808;23.408;2022-09-25T06:56:22;11.85;;;8.05;;
24279;SDS011;12395;42.808;23.408;2022-09-25T06:58:48;11.68;;;7.28;;
24279;SDS011;12395;42.808;23.408;2022-09-25T07:01:14;13.27;;;7.32;;
24279;SDS011;12395;42.808;23.408;2022-09-25T07:03:39;11.38;;;6.75;;
24279;SDS011;12395;42.808;23.408;2022-09-25T07:06:13;10.63;;;6.85;;
24279;SDS011;12395;42.808;23.408;2022-09-25T07:08:40;11.50;;;6.70;;
24279;SDS011;12395;42.808;23.408;2022-09-25T07:11:09;10.98;;;7.13;;
24279;SDS011;12395;42.808;23.408;2022-09-25T07:13:37;19.05;;;17.15;;
24279;SDS011;12395;42.808;23.408;2022-09-25T07:16:03;10.40;;;6.95;;
24279;SDS011;12395;42.808;23.408;2022-09-25T07:21:03;10.82;;;6.47;;
24279;SDS011;12395;42.808;23.408;2022-09-25T07:23:30;10.45;;;6.88;;
24279;SDS011;12395;42.808;23.408;2022-09-25T07:28:37;11.45;;;6.85;;
24279;SDS011;12395;42.808;23.408;2022-09-25T07:31:13;11.93;;;7.32;;
24279;SDS011;12395;42.808;23.408;2022-09-25T07:33:43;12.23;;;6.43;;
24279;SDS011;12395;42.808;23.408;2022-09-25T07:36:09;10.00;;;6.20;;
24279;SDS011;12395;42.808;23.408;2022-09-25T07:38:35;10.38;;;6.25;;
24279;SDS011;12395;42.808;23.408;2022-09-25T07:41:01;9.55;;;6.10;;
24279;SDS011;12395;42.808;23.408;2022-09-25T07:43:29;9.18;;;5.72;;
24279;SDS011;12395;42.808;23.408;2022-09-25T07:45:55;8.27;;;5.65;;
24279;SDS011;12395;42.808;23.408;2022-09-25T07:48:21;9.52;;;5.30;;
24279;SDS011;12395;42.808;23.408;2022-09-25T07:50:47;10.95;;;5.18;;
24279;SDS011;12395;42.808;23.408;2022-09-25T07:53:14;8.70;;;4.78;;
24279;SDS011;12395;42.808;23.408;2022-09-25T07:55:42;6.30;;;3.53;;
24279;SDS011;12395;42.808;23.408;2022-09-25T07:58:08;5.40;;;3.42;;
24279;SDS011;12395;42.808;23.408;2022-09-25T08:00:34;6.93;;;4.63;;
24279;SDS011;12395;42.808;23.408;2022-09-25T08:02:59;7.75;;;4.95;;
24279;SDS011;12395;42.808;23.408;2022-09-25T08:05:25;8.35;;;4.70;;
24279;SDS011;12395;42.808;23.408;2022-09-25T08:07:52;7.70;;;4.70;;
24279;SDS011;12395;42.808;23.408;2022-09-25T08:10:18;7.82;;;4.90;;
24279;SDS011;12395;42.808;23.408;2022-09-25T08:12:43;7.15;;;4.40;;
24279;SDS011;12395;42.808;23.408;2022-09-25T08:15:09;6.72;;;4.47;;
24279;SDS011;12395;42.808;23.408;2022-09-25T08:17:34;6.97;;;4.57;;
24279;SDS011;12395;42.808;23.408;2022-09-25T08:20:00;6.10;;;4.07;;
24279;SDS011;12395;42.808;23.408;2022-09-25T08:22:26;6.15;;;4.18;;
24279;SDS011;12395;42.808;23.408;2022-09-25T08:24:51;7.72;;;4.10;;
24279;SDS011;12395;42.808;23.408;2022-09-25T08:27:20;6.38;;;4.00;;
24279;SDS011;12395;42.808;23.408;2022-09-25T08:29:45;7.35;;;4.05;;
24279;SDS011;12395;42.808;23.408;2022-09-25T08:32:10;6.95;;;4.07;;
24279;SDS011;12395;42.808;23.408;2022-09-25T08:34:36;5.57;;;3.78;;
24279;SDS011;12395;42.808;23.408;2022-09-25T08:37:01;8.13;;;3.92;;
24279;SDS011;12395;42.808;23.408;2022-09-25T08:39:27;6.93;;;3.70;;
24279;SDS011;12395;42.808;23.408;2022-09-25T08:41:53;6.65;;;4.15;;
24279;SDS011;12395;42.808;23.408;2022-09-25T08:44:38;8.20;;;4.32;;
24279;SDS011;12395;42.808;23.408;2022-09-25T08:50:08;7.53;;;3.60;;
24279;SDS011;12395;42.808;23.408;2022-09-25T08:52:36;5.60;;;3.53;;
24279;SDS011;12395;42.808;23.408;2022-09-25T08:55:11;5.43;;;3.63;;
24279;SDS011;12395;42.808;23.408;2022-09-25T08:57:44;5.72;;;3.60;;
24279;SDS011;12395;42.808;23.408;2022-09-25T09:02:53;6.95;;;3.50;;
24279;SDS011;12395;42.808;23.408;2022-09-25T09:05:34;5.47;;;3.78;;
24279;SDS011;12395;42.808;23.408;2022-09-25T09:10:39;6.10;;;3.00;;
24279;SDS011;12395;42.808;23.408;2022-09-25T09:15:40;5.88;;;3.00;;
24279;SDS011;12395;42.808;23.408;2022-09-25T09:18:15;15.02;;;3.20;;
24279;SDS011;12395;42.808;23.408;2022-09-25T09:20:56;10.93;;;3.30;;
24279;SDS011;12395;42.808;23.408;2022-09-25T09:23:41;8.40;;;3.13;;
24279;SDS011;12395;42.808;23.408;2022-09-25T09:46:04;4.93;;;2.97;;
24279;SDS011;12395;42.808;23.408;2022-09-25T09:51:37;3.92;;;2.60;;
24279;SDS011;12395;42.808;23.408;2022-09-25T09:54:12;4.43;;;2.65;;
24279;SDS011;12395;42.808;23.408;2022-09-25T09:56:46;4.82;;;2.63;;
24279;SDS011;12395;42.808;23.408;2022-09-25T09:59:15;4.05;;;2.85;;
24279;SDS011;12395;42.808;23.408;2022-09-25T10:01:43;3.67;;;2.70;;
24279;SDS011;12395;42.808;23.408;2022-09-25T10:04:17;4.10;;;2.90;;
24279;SDS011;12395;42.808;23.408;2022-09-25T10:06:46;5.32;;;3.00;;
24279;SDS011;12395;42.808;23.408;2022-09-25T10:09:16;4.35;;;2.83;;
24279;SDS011;12395;42.808;23.408;2022-09-25T10:11:43;4.32;;;2.88;;
24279;SDS011;12395;42.808;23.408;2022-09-25T10:14:13;4.63;;;2.70;;
24279;SDS011;12395;42.808;23.408;2022-09-25T10:16:45;4.18;;;2.90;;
24279;SDS011;12395;42.808;23.408;2022-09-25T10:19:17;5.18;;;3.00;;
24279;SDS011;12395;42.808;23.408;2022-09-25T10:21:50;4.20;;;2.40;;
24279;SDS011;12395;42.808;23.408;2022-09-25T10:32:41;3.42;;;2.17;;
24279;SDS011;12395;42.808;23.408;2022-09-25T10:35:19;3.08;;;2.25;;
24279;SDS011;12395;42.808;23.408;2022-09-25T10:37:47;4.38;;;2.42;;
24279;SDS011;12395;42.808;23.408;2022-09-25T10:40:24;3.90;;;2.47;;
24279;SDS011;12395;42.808;23.408;2022-09-25T10:42:56;3.50;;;2.53;;
24279;SDS011;12395;42.808;23.408;2022-09-25T10:45:28;3.97;;;2.40;;
24279;SDS011;12395;42.808;23.408;2022-09-25T10:47:58;4.90;;;2.60;;
24279;SDS011;12395;42.808;23.408;2022-09-25T10:50:43;2.80;;;2.50;;
24279;SDS011;12395;42.808;23.408;2022-09-25T10:53:22;4.85;;;2.58;;
24279;SDS011;12395;42.808;23.408;2022-09-25T10:55:56;3.47;;;2.55;;
24279;SDS011;12395;42.808;23.408;2022-09-25T10:58:35;4.18;;;2.60;;
24279;SDS011;12395;42.808;23.408;2022-09-25T11:01:05;3.72;;;2.70;;
24279;SDS011;12395;42.808;23.408;2022-09-25T11:03:38;4.85;;;2.80;;
24279;SDS011;12395;42.808;23.408;2022-09-25T11:09:07;5.13;;;2.40;;
24279;SDS011;12395;42.808;23.408;2022-09-25T11:11:36;3.65;;;2.47;;
24279;SDS011;12395;42.808;23.408;2022-09-25T11:14:04;2.85;;;2.40;;
24279;SDS011;12395;42.808;23.408;2022-09-25T11:16:45;4.68;;;2.67;;
24279;SDS011;12395;42.808;23.408;2022-09-25T11:25:04;3.45;;;2.53;;
24279;SDS011;12395;42.808;23.408;2022-09-25T11:27:56;6.38;;;2.90;;
24279;SDS011;12395;42.808;23.408;2022-09-25T11:30:41;4.55;;;2.70;;
24279;SDS011;12395;42.808;23.408;2022-09-25T11:36:04;5.53;;;2.55;;
24279;SDS011;12395;42.808;23.408;2022-09-25T11:38:51;4.55;;;2.60;;
24279;SDS011;12395;42.808;23.408;2022-09-25T11:49:31;4.28;;;2.58;;
24279;SDS011;12395;42.808;23.408;2022-09-25T12:00:28;4.47;;;2.30;;
24279;SDS011;12395;42.808;23.408;2022-09-25T12:11:25;3.65;;;2.63;;
24279;SDS011;12395;42.808;23.408;2022-09-25T12:17:33;3.00;;;2.40;;
24279;SDS011;12395;42.808;23.408;2022-09-25T12:20:19;2.80;;;2.10;;
24279;SDS011;12395;42.808;23.408;2022-09-25T12:31:20;3.38;;;2.20;;
24279;SDS011;12395;42.808;23.408;2022-09-25T12:36:52;3.35;;;2.30;;
24279;SDS011;12395;42.808;23.408;2022-09-25T12:39:28;4.35;;;2.55;;
24279;SDS011;12395;42.808;23.408;2022-09-25T12:42:06;4.05;;;2.08;;
24279;SDS011;12395;42.808;23.408;2022-09-25T13:01:18;2.97;;;2.28;;
24279;SDS011;12395;42.808;23.408;2022-09-25T13:04:08;5.13;;;2.30;;
24279;SDS011;12395;42.808;23.408;2022-09-25T13:07:03;4.68;;;2.15;;
24279;SDS011;12395;42.808;23.408;2022-09-25T13:09:45;2.30;;;2.10;;
24279;SDS011;12395;42.808;23.408;2022-09-25T13:15:05;3.53;;;2.35;;
24279;SDS011;12395;42.808;23.408;2022-09-25T13:17:35;2.45;;;2.00;;
24279;SDS011;12395;42.808;23.408;2022-09-25T13:23:10;4.20;;;2.20;;
24279;SDS011;12395;42.808;23.408;2022-09-25T13:28:22;4.85;;;2.40;;
24279;SDS011;12395;42.808;23.408;2022-09-25T13:31:09;4.10;;;2.20;;
24279;SDS011;12395;42.808;23.408;2022-09-25T13:38:52;4.57;;;2.28;;
24279;SDS011;12395;42.808;23.408;2022-09-25T13:41:47;2.40;;;2.00;;
24279;SDS011;12395;42.808;23.408;2022-09-25T13:49:50;4.97;;;2.47;;
24279;SDS011;12395;42.808;23.408;2022-09-25T14:03:01;2.42;;;2.08;;
24279;SDS011;12395;42.808;23.408;2022-09-25T14:05:31;3.50;;;2.30;;
24279;SDS011;12395;42.808;23.408;2022-09-25T14:08:07;3.78;;;2.40;;
24279;SDS011;12395;42.808;23.408;2022-09-25T14:10:45;4.13;;;2.38;;
24279;SDS011;12395;42.808;23.408;2022-09-25T14:13:13;3.38;;;2.30;;
24279;SDS011;12395;42.808;23.408;2022-09-25T14:15:42;4.55;;;2.20;;
24279;SDS011;12395;42.808;23.408;2022-09-25T14:18:18;3.35;;;2.10;;
24279;SDS011;12395;42.808;23.408;2022-09-25T14:20:49;4.32;;;2.75;;
24279;SDS011;12395;42.808;23.408;2022-09-25T14:25:44;2.92;;;2.20;;
24279;SDS011;12395;42.808;23.408;2022-09-25T14:39:08;3.55;;;2.08;;
24279;SDS011;12395;42.808;23.408;2022-09-25T14:41:50;5.40;;;2.45;;
24279;SDS011;12395;42.808;23.408;2022-09-25T14:44:55;4.15;;;2.50;;
24279;SDS011;12395;42.808;23.408;2022-09-25T14:47:25;4.88;;;2.20;;
24279;SDS011;12395;42.808;23.408;2022-09-25T14:49:57;3.72;;;2.40;;
24279;SDS011;12395;42.808;23.408;2022-09-25T14:52:24;3.75;;;2.40;;
24279;SDS011;12395;42.808;23.408;2022-09-25T14:54:53;4.35;;;2.50;;
24279;SDS011;12395;42.808;23.408;2022-09-25T14:57:25;3.00;;;1.92;;
24279;SDS011;12395;42.808;23.408;2022-09-25T14:59:55;4.20;;;2.38;;
24279;SDS011;12395;42.808;23.408;2022-09-25T15:02:34;3.50;;;2.20;;
24279;SDS011;12395;42.808;23.408;2022-09-25T15:07:52;4.57;;;2.42;;
24279;SDS011;12395;42.808;23.408;2022-09-25T15:10:36;4.38;;;2.20;;
24279;SDS011;12395;42.808;23.408;2022-09-25T15:15:34;5.78;;;2.33;;
24279;SDS011;12395;42.808;23.408;2022-09-25T15:18:02;5.53;;;2.60;;
24279;SDS011;12395;42.808;23.408;2022-09-25T15:20:29;5.23;;;2.43;;
24279;SDS011;12395;42.808;23.408;2022-09-25T15:25:34;4.55;;;2.28;;
24279;SDS011;12395;42.808;23.408;2022-09-25T15:28:05;4.95;;;2.90;;
24279;SDS011;12395;42.808;23.408;2022-09-25T15:30:33;3.85;;;2.38;;
24279;SDS011;12395;42.808;23.408;2022-09-25T15:33:00;3.65;;;2.30;;
24279;SDS011;12395;42.808;23.408;2022-09-25T15:35:26;3.40;;;2.20;;
24279;SDS011;12395;42.808;23.408;2022-09-25T15:38:03;5.67;;;2.20;;
24279;SDS011;12395;42.808;23.408;2022-09-25T15:40:35;4.55;;;2.50;;
24279;SDS011;12395;42.808;23.408;2022-09-25T15:43:01;4.28;;;2.30;;
24279;SDS011;12395;42.808;23.408;2022-09-25T15:48:15;4.28;;;2.30;;
24279;SDS011;12395;42.808;23.408;2022-09-25T15:50:45;5.53;;;3.13;;
24279;SDS011;12395;42.808;23.408;2022-09-25T15:53:31;6.57;;;2.67;;
24279;SDS011;12395;42.808;23.408;2022-09-25T15:58:49;7.60;;;3.60;;
24279;SDS011;12395;42.808;23.408;2022-09-25T16:01:18;8.85;;;4.43;;
24279;SDS011;12395;42.808;23.408;2022-09-25T16:06:51;7.50;;;3.83;;
24279;SDS011;12395;42.808;23.408;2022-09-25T16:11:46;4.93;;;2.97;;
24279;SDS011;12395;42.808;23.408;2022-09-25T16:14:17;6.25;;;2.40;;
24279;SDS011;12395;42.808;23.408;2022-09-25T16:16:46;6.20;;;2.17;;
24279;SDS011;12395;42.808;23.408;2022-09-25T16:21:51;3.47;;;2.00;;
24279;SDS011;12395;42.808;23.408;2022-09-25T16:24:19;3.55;;;1.95;;
24279;SDS011;12395;42.808;23.408;2022-09-25T16:26:54;4.82;;;2.10;;
24279;SDS011;12395;42.808;23.408;2022-09-25T16:29:34;6.22;;;2.10;;
24279;SDS011;12395;42.808;23.408;2022-09-25T16:32:04;4.22;;;2.08;;
24279;SDS011;12395;42.808;23.408;2022-09-25T16:34:33;3.78;;;2.05;;
24279;SDS011;12395;42.808;23.408;2022-09-25T16:37:01;4.68;;;2.10;;
24279;SDS011;12395;42.808;23.408;2022-09-25T16:39:30;5.38;;;2.08;;
24279;SDS011;12395;42.808;23.408;2022-09-25T16:41:56;4.05;;;2.17;;
24279;SDS011;12395;42.808;23.408;2022-09-25T16:49:20;5.65;;;2.17;;
24279;SDS011;12395;42.808;23.408;2022-09-25T16:51:46;3.47;;;2.15;;
24279;SDS011;12395;42.808;23.408;2022-09-25T16:54:14;4.65;;;2.05;;
24279;SDS011;12395;42.808;23.408;2022-09-25T16:56:42;3.63;;;2.55;;
24279;SDS011;12395;42.808;23.408;2022-09-25T16:59:27;3.65;;;2.35;;
24279;SDS011;12395;42.808;23.408;2022-09-25T17:01:54;2.33;;;1.77;;
24279;SDS011;12395;42.808;23.408;2022-09-25T17:04:24;3.20;;;1.90;;
24279;SDS011;12395;42.808;23.408;2022-09-25T17:06:52;4.75;;;2.28;;
24279;SDS011;12395;42.808;23.408;2022-09-25T17:09:24;4.00;;;1.90;;
24279;SDS011;12395;42.808;23.408;2022-09-25T17:11:52;3.15;;;2.00;;
24279;SDS011;12395;42.808;23.408;2022-09-25T17:14:24;7.10;;;2.30;;
24279;SDS011;12395;42.808;23.408;2022-09-25T17:19:18;4.63;;;2.05;;
24279;SDS011;12395;42.808;23.408;2022-09-25T17:21:48;5.15;;;2.47;;
24279;SDS011;12395;42.808;23.408;2022-09-25T17:24:16;5.95;;;2.10;;
24279;SDS011;12395;42.808;23.408;2022-09-25T17:26:43;4.70;;;2.30;;
24279;SDS011;12395;42.808;23.408;2022-09-25T17:29:08;3.08;;;2.13;;
24279;SDS011;12395;42.808;23.408;2022-09-25T17:31:35;3.60;;;2.30;;
24279;SDS011;12395;42.808;23.408;2022-09-25T17:34:01;3.10;;;2.20;;
24279;SDS011;12395;42.808;23.408;2022-09-25T17:36:31;2.97;;;2.00;;
24279;SDS011;12395;42.808;23.408;2022-09-25T17:38:57;2.65;;;2.00;;
24279;SDS011;12395;42.808;23.408;2022-09-25T17:41:30;3.72;;;1.95;;
24279;SDS011;12395;42.808;23.408;2022-09-25T17:44:00;2.22;;;1.98;;
24279;SDS011;12395;42.808;23.408;2022-09-25T17:46:27;4.10;;;2.25;;
24279;SDS011;12395;42.808;23.408;2022-09-25T17:48:53;3.88;;;2.25;;
24279;SDS011;12395;42.808;23.408;2022-09-25T17:51:23;5.00;;;2.10;;
24279;SDS011;12395;42.808;23.408;2022-09-25T17:53:49;3.78;;;2.17;;
24279;SDS011;12395;42.808;23.408;2022-09-25T17:56:18;3.58;;;2.45;;
24279;SDS011;12395;42.808;23.408;2022-09-25T17:58:44;3.58;;;2.10;;
24279;SDS011;12395;42.808;23.408;2022-09-25T18:01:12;3.40;;;1.90;;
24279;SDS011;12395;42.808;23.408;2022-09-25T18:03:51;3.03;;;2.00;;
24279;SDS011;12395;42.808;23.408;2022-09-25T18:06:21;4.18;;;2.03;;
24279;SDS011;12395;42.808;23.408;2022-09-25T18:08:47;3.70;;;2.13;;
24279;SDS011;12395;42.808;23.408;2022-09-25T18:11:13;2.63;;;1.95;;
24279;SDS011;12395;42.808;23.408;2022-09-25T18:13:40;4.35;;;2.10;;
24279;SDS011;12395;42.808;23.408;2022-09-25T18:16:06;4.40;;;2.08;;
24279;SDS011;12395;42.808;23.408;2022-09-25T18:18:43;2.70;;;1.88;;
24279;SDS011;12395;42.808;23.408;2022-09-25T18:21:27;3.22;;;2.00;;
24279;SDS011;12395;42.808;23.408;2022-09-25T18:24:11;5.15;;;2.20;;
24279;SDS011;12395;42.808;23.408;2022-09-25T18:26:36;3.40;;;2.17;;
24279;SDS011;12395;42.808;23.408;2022-09-25T18:29:02;4.75;;;2.00;;
24279;SDS011;12395;42.808;23.408;2022-09-25T18:31:28;4.25;;;2.08;;
24279;SDS011;12395;42.808;23.408;2022-09-25T18:33:53;2.50;;;1.92;;
24279;SDS011;12395;42.808;23.408;2022-09-25T18:36:19;4.75;;;2.17;;
24279;SDS011;12395;42.808;23.408;2022-09-25T18:38:46;3.00;;;2.10;;
24279;SDS011;12395;42.808;23.408;2022-09-25T18:41:11;22.67;;;8.32;;
24279;SDS011;12395;42.808;23.408;2022-09-25T18:43:38;9.88;;;6.47;;
24279;SDS011;12395;42.808;23.408;2022-09-25T18:46:04;45.15;;;40.00;;
24279;SDS011;12395;42.808;23.408;2022-09-25T18:48:30;50.35;;;35.15;;
24279;SDS011;12395;42.808;23.408;2022-09-25T18:50:56;65.75;;;43.42;;
24279;SDS011;12395;42.808;23.408;2022-09-25T18:53:22;22.70;;;17.92;;
24279;SDS011;12395;42.808;23.408;2022-09-25T18:55:52;12.80;;;8.90;;
24279;SDS011;12395;42.808;23.408;2022-09-25T18:58:23;18.02;;;13.25;;